sensor_id;sensor_type;location;lat;lon;timestamp;P1;durP1;ratioP1;P2;durP2;ratioP2
60867;SDS011;46702;48.370;10.794;2023-07-24T00:01:02;9.38;;;4.68;;
60867;SDS011;46702;48.370;10.794;2023-07-24T00:03:28;8.02;;;4.68;;
60867;SDS011;46702;48.370;10.794;2023-07-24T00:05:57;9.02;;;4.65;;
60867;SDS011;46702;48.370;10.794;2023-07-24T00:08:24;7.53;;;4.65;;
60867;SDS011;46702;48.370;10.794;2023-07-24T00:10:50;8.82;;;4.93;;
60867;SDS011;46702;48.370;10.794;2023-07-24T00:13:16;8.05;;;4.13;;
60867;SDS011;46702;48.370;10.794;2023-07-24T00:15:41;6.97;;;3.85;;
60867;SDS011;46702;48.370;10.794;2023-07-24T00:18:07;6.88;;;4.18;;
60867;SDS011;46702;48.370;10.794;2023-07-24T00:20:33;7.32;;;4.22;;
60867;SDS011;46702;48.370;10.794;2023-07-24T00:22:58;7.93;;;4.50;;
60867;SDS011;46702;48.370;10.794;2023-07-24T00:25:24;8.20;;;4.50;;
60867;SDS011;46702;48.370;10.794;2023-07-24T00:27:49;8.00;;;4.75;;
60867;SDS011;46702;48.370;10.794;2023-07-24T00:30:15;7.55;;;4.40;;
60867;SDS011;46702;48.370;10.794;2023-07-24T00:32:41;9.60;;;4.85;;
60867;SDS011;46702;48.370;10.794;2023-07-24T00:35:07;10.25;;;4.60;;
60867;SDS011;46702;48.370;10.794;2023-07-24T00:37:33;9.82;;;4.45;;
60867;SDS011;46702;48.370;10.794;2023-07-24T00:39:59;11.00;;;4.45;;
60867;SDS011;46702;48.370;10.794;2023-07-24T00:42:24;10.23;;;5.40;;
60867;SDS011;46702;48.370;10.794;2023-07-24T00:44:50;8.90;;;4.50;;
60867;SDS011;46702;48.370;10.794;2023-07-24T00:47:16;10.48;;;4.40;;
60867;SDS011;46702;48.370;10.794;2023-07-24T00:49:42;9.43;;;4.70;;
60867;SDS011;46702;48.370;10.794;2023-07-24T00:52:08;6.90;;;4.35;;
60867;SDS011;46702;48.370;10.794;2023-07-24T00:54:34;8.43;;;4.65;;
60867;SDS011;46702;48.370;10.794;2023-07-24T00:57:00;8.43;;;4.80;;
60867;SDS011;46702;48.370;10.794;2023-07-24T00:59:26;7.82;;;4.75;;
60867;SDS011;46702;48.370;10.794;2023-07-24T01:01:52;8.10;;;4.57;;
60867;SDS011;46702;48.370;10.794;2023-07-24T01:04:18;9.75;;;5.30;;
60867;SDS011;46702;48.370;10.794;2023-07-24T01:06:44;10.13;;;5.07;;
60867;SDS011;46702;48.370;10.794;2023-07-24T01:09:10;11.45;;;5.40;;
60867;SDS011;46702;48.370;10.794;2023-07-24T01:11:37;8.68;;;4.82;;
60867;SDS011;46702;48.370;10.794;2023-07-24T01:16:37;8.93;;;4.85;;
60867;SDS011;46702;48.370;10.794;2023-07-24T01:19:09;6.32;;;4.20;;
60867;SDS011;46702;48.370;10.794;2023-07-24T01:21:45;10.68;;;4.68;;
60867;SDS011;46702;48.370;10.794;2023-07-24T01:24:33;8.40;;;4.93;;
60867;SDS011;46702;48.370;10.794;2023-07-24T01:27:07;9.00;;;4.57;;
60867;SDS011;46702;48.370;10.794;2023-07-24T01:29:32;10.98;;;5.15;;
60867;SDS011;46702;48.370;10.794;2023-07-24T01:31:58;7.60;;;4.68;;
60867;SDS011;46702;48.370;10.794;2023-07-24T01:34:23;7.50;;;5.10;;
60867;SDS011;46702;48.370;10.794;2023-07-24T01:36:49;9.25;;;5.00;;
60867;SDS011;46702;48.370;10.794;2023-07-24T01:39:15;9.98;;;5.75;;
60867;SDS011;46702;48.370;10.794;2023-07-24T01:41:43;9.30;;;5.32;;
60867;SDS011;46702;48.370;10.794;2023-07-24T01:44:09;11.95;;;5.50;;
60867;SDS011;46702;48.370;10.794;2023-07-24T01:46:34;7.30;;;4.53;;
60867;SDS011;46702;48.370;10.794;2023-07-24T01:49:00;9.25;;;4.65;;
60867;SDS011;46702;48.370;10.794;2023-07-24T01:51:25;8.43;;;4.85;;
60867;SDS011;46702;48.370;10.794;2023-07-24T01:53:51;9.10;;;4.68;;
60867;SDS011;46702;48.370;10.794;2023-07-24T01:56:16;9.18;;;5.50;;
60867;SDS011;46702;48.370;10.794;2023-07-24T01:58:42;10.25;;;5.80;;
60867;SDS011;46702;48.370;10.794;2023-07-24T02:01:08;11.35;;;6.30;;
60867;SDS011;46702;48.370;10.794;2023-07-24T02:03:33;11.48;;;5.65;;
60867;SDS011;46702;48.370;10.794;2023-07-24T02:05:59;11.82;;;6.18;;
60867;SDS011;46702;48.370;10.794;2023-07-24T02:08:24;13.77;;;6.47;;
60867;SDS011;46702;48.370;10.794;2023-07-24T02:10:50;11.07;;;6.43;;
60867;SDS011;46702;48.370;10.794;2023-07-24T02:13:16;12.50;;;5.63;;
60867;SDS011;46702;48.370;10.794;2023-07-24T02:15:41;12.32;;;6.47;;
60867;SDS011;46702;48.370;10.794;2023-07-24T02:18:07;13.73;;;6.35;;
60867;SDS011;46702;48.370;10.794;2023-07-24T02:20:32;11.55;;;6.07;;
60867;SDS011;46702;48.370;10.794;2023-07-24T02:22:58;12.10;;;6.03;;
60867;SDS011;46702;48.370;10.794;2023-07-24T02:25:23;11.68;;;6.00;;
60867;SDS011;46702;48.370;10.794;2023-07-24T02:27:49;10.05;;;5.70;;
60867;SDS011;46702;48.370;10.794;2023-07-24T02:30:15;10.50;;;6.03;;
60867;SDS011;46702;48.370;10.794;2023-07-24T02:32:40;10.95;;;5.95;;
60867;SDS011;46702;48.370;10.794;2023-07-24T02:35:06;11.90;;;6.60;;
60867;SDS011;46702;48.370;10.794;2023-07-24T02:37:32;15.55;;;6.97;;
60867;SDS011;46702;48.370;10.794;2023-07-24T02:39:57;12.07;;;6.68;;
60867;SDS011;46702;48.370;10.794;2023-07-24T02:42:23;14.07;;;7.30;;
60867;SDS011;46702;48.370;10.794;2023-07-24T02:44:48;11.80;;;6.32;;
60867;SDS011;46702;48.370;10.794;2023-07-24T02:47:14;11.98;;;6.55;;
60867;SDS011;46702;48.370;10.794;2023-07-24T02:49:40;15.32;;;7.57;;
60867;SDS011;46702;48.370;10.794;2023-07-24T02:52:05;16.42;;;7.35;;
60867;SDS011;46702;48.370;10.794;2023-07-24T02:54:31;14.23;;;7.68;;
60867;SDS011;46702;48.370;10.794;2023-07-24T02:56:56;18.67;;;7.47;;
60867;SDS011;46702;48.370;10.794;2023-07-24T02:59:23;13.38;;;7.43;;
60867;SDS011;46702;48.370;10.794;2023-07-24T03:01:48;13.90;;;7.55;;
60867;SDS011;46702;48.370;10.794;2023-07-24T03:04:14;15.35;;;7.65;;
60867;SDS011;46702;48.370;10.794;2023-07-24T03:06:39;14.57;;;7.60;;
60867;SDS011;46702;48.370;10.794;2023-07-24T03:09:05;15.52;;;7.45;;
60867;SDS011;46702;48.370;10.794;2023-07-24T03:11:31;15.48;;;7.97;;
60867;SDS011;46702;48.370;10.794;2023-07-24T03:13:57;13.35;;;7.72;;
60867;SDS011;46702;48.370;10.794;2023-07-24T03:16:22;16.65;;;7.45;;
60867;SDS011;46702;48.370;10.794;2023-07-24T03:18:48;12.02;;;7.15;;
60867;SDS011;46702;48.370;10.794;2023-07-24T03:21:13;15.95;;;7.28;;
60867;SDS011;46702;48.370;10.794;2023-07-24T03:23:39;12.65;;;6.90;;
60867;SDS011;46702;48.370;10.794;2023-07-24T03:26:05;12.93;;;6.82;;
60867;SDS011;46702;48.370;10.794;2023-07-24T03:28:30;14.90;;;7.70;;
60867;SDS011;46702;48.370;10.794;2023-07-24T03:30:56;14.40;;;7.43;;
60867;SDS011;46702;48.370;10.794;2023-07-24T03:33:22;15.52;;;8.00;;
60867;SDS011;46702;48.370;10.794;2023-07-24T03:35:47;14.88;;;6.93;;
60867;SDS011;46702;48.370;10.794;2023-07-24T03:38:13;12.18;;;6.78;;
60867;SDS011;46702;48.370;10.794;2023-07-24T03:40:38;12.50;;;7.22;;
60867;SDS011;46702;48.370;10.794;2023-07-24T03:43:04;14.00;;;7.60;;
60867;SDS011;46702;48.370;10.794;2023-07-24T03:45:30;13.38;;;7.13;;
60867;SDS011;46702;48.370;10.794;2023-07-24T03:47:56;12.70;;;7.63;;
60867;SDS011;46702;48.370;10.794;2023-07-24T03:50:22;12.98;;;7.18;;
60867;SDS011;46702;48.370;10.794;2023-07-24T03:52:47;15.38;;;7.68;;
60867;SDS011;46702;48.370;10.794;2023-07-24T03:55:13;11.52;;;6.78;;
60867;SDS011;46702;48.370;10.794;2023-07-24T03:57:38;14.55;;;8.13;;
60867;SDS011;46702;48.370;10.794;2023-07-24T04:00:04;12.02;;;6.38;;
60867;SDS011;46702;48.370;10.794;2023-07-24T04:02:31;13.85;;;7.43;;
60867;SDS011;46702;48.370;10.794;2023-07-24T04:04:56;15.18;;;7.75;;
60867;SDS011;46702;48.370;10.794;2023-07-24T04:07:22;13.27;;;7.70;;
60867;SDS011;46702;48.370;10.794;2023-07-24T04:09:48;13.10;;;7.30;;
60867;SDS011;46702;48.370;10.794;2023-07-24T04:12:13;13.70;;;7.32;;
60867;SDS011;46702;48.370;10.794;2023-07-24T04:14:39;12.70;;;7.88;;
60867;SDS011;46702;48.370;10.794;2023-07-24T04:17:05;13.77;;;7.78;;
60867;SDS011;46702;48.370;10.794;2023-07-24T04:19:30;13.02;;;7.60;;
60867;SDS011;46702;48.370;10.794;2023-07-24T04:21:56;18.20;;;8.63;;
60867;SDS011;46702;48.370;10.794;2023-07-24T04:24:22;13.98;;;7.65;;
60867;SDS011;46702;48.370;10.794;2023-07-24T04:26:47;15.95;;;8.93;;
60867;SDS011;46702;48.370;10.794;2023-07-24T04:29:13;14.18;;;8.05;;
60867;SDS011;46702;48.370;10.794;2023-07-24T04:31:38;13.85;;;7.38;;
60867;SDS011;46702;48.370;10.794;2023-07-24T04:34:04;12.82;;;7.47;;
60867;SDS011;46702;48.370;10.794;2023-07-24T04:36:29;15.35;;;8.23;;
60867;SDS011;46702;48.370;10.794;2023-07-24T04:38:55;14.18;;;8.10;;
60867;SDS011;46702;48.370;10.794;2023-07-24T04:41:21;11.52;;;7.35;;
60867;SDS011;46702;48.370;10.794;2023-07-24T04:43:46;16.00;;;7.85;;
60867;SDS011;46702;48.370;10.794;2023-07-24T04:46:12;13.55;;;8.32;;
60867;SDS011;46702;48.370;10.794;2023-07-24T04:48:37;15.20;;;7.88;;
60867;SDS011;46702;48.370;10.794;2023-07-24T04:51:03;15.20;;;7.95;;
60867;SDS011;46702;48.370;10.794;2023-07-24T04:53:29;13.90;;;7.63;;
60867;SDS011;46702;48.370;10.794;2023-07-24T04:55:54;15.50;;;8.07;;
60867;SDS011;46702;48.370;10.794;2023-07-24T04:58:20;14.55;;;7.75;;
60867;SDS011;46702;48.370;10.794;2023-07-24T05:00:45;13.60;;;8.52;;
60867;SDS011;46702;48.370;10.794;2023-07-24T05:03:11;12.15;;;6.72;;
60867;SDS011;46702;48.370;10.794;2023-07-24T05:05:37;13.93;;;7.75;;
60867;SDS011;46702;48.370;10.794;2023-07-24T05:08:03;12.82;;;7.30;;
60867;SDS011;46702;48.370;10.794;2023-07-24T05:10:34;14.23;;;7.87;;
60867;SDS011;46702;48.370;10.794;2023-07-24T05:13:02;12.50;;;7.88;;
60867;SDS011;46702;48.370;10.794;2023-07-24T05:15:28;13.57;;;7.80;;
60867;SDS011;46702;48.370;10.794;2023-07-24T05:17:54;13.65;;;7.85;;
60867;SDS011;46702;48.370;10.794;2023-07-24T05:20:19;14.57;;;7.57;;
60867;SDS011;46702;48.370;10.794;2023-07-24T05:22:45;14.02;;;8.13;;
60867;SDS011;46702;48.370;10.794;2023-07-24T05:25:10;13.57;;;7.40;;
60867;SDS011;46702;48.370;10.794;2023-07-24T05:27:36;13.98;;;7.72;;
60867;SDS011;46702;48.370;10.794;2023-07-24T05:30:02;13.70;;;7.80;;
60867;SDS011;46702;48.370;10.794;2023-07-24T05:32:28;15.77;;;7.93;;
60867;SDS011;46702;48.370;10.794;2023-07-24T05:34:54;15.82;;;8.23;;
60867;SDS011;46702;48.370;10.794;2023-07-24T05:37:20;13.88;;;8.40;;
60867;SDS011;46702;48.370;10.794;2023-07-24T05:39:45;15.05;;;7.72;;
60867;SDS011;46702;48.370;10.794;2023-07-24T05:42:11;13.10;;;7.00;;
60867;SDS011;46702;48.370;10.794;2023-07-24T05:44:36;16.23;;;7.93;;
60867;SDS011;46702;48.370;10.794;2023-07-24T05:47:02;13.57;;;6.95;;
60867;SDS011;46702;48.370;10.794;2023-07-24T05:49:28;13.90;;;7.68;;
60867;SDS011;46702;48.370;10.794;2023-07-24T05:51:54;13.50;;;7.35;;
60867;SDS011;46702;48.370;10.794;2023-07-24T05:54:21;14.03;;;7.27;;
60867;SDS011;46702;48.370;10.794;2023-07-24T05:56:47;11.25;;;6.90;;
60867;SDS011;46702;48.370;10.794;2023-07-24T05:59:13;13.93;;;7.60;;
60867;SDS011;46702;48.370;10.794;2023-07-24T06:01:39;13.60;;;7.03;;
60867;SDS011;46702;48.370;10.794;2023-07-24T06:04:05;14.75;;;7.00;;
60867;SDS011;46702;48.370;10.794;2023-07-24T06:06:32;13.93;;;6.95;;
60867;SDS011;46702;48.370;10.794;2023-07-24T06:08:58;13.30;;;7.38;;
60867;SDS011;46702;48.370;10.794;2023-07-24T06:11:23;11.50;;;6.60;;
60867;SDS011;46702;48.370;10.794;2023-07-24T06:13:51;12.52;;;6.90;;
60867;SDS011;46702;48.370;10.794;2023-07-24T06:16:17;12.25;;;6.80;;
60867;SDS011;46702;48.370;10.794;2023-07-24T06:18:43;16.20;;;7.82;;
60867;SDS011;46702;48.370;10.794;2023-07-24T06:21:09;12.63;;;6.68;;
60867;SDS011;46702;48.370;10.794;2023-07-24T06:23:34;12.10;;;6.65;;
60867;SDS011;46702;48.370;10.794;2023-07-24T06:26:00;11.63;;;7.15;;
60867;SDS011;46702;48.370;10.794;2023-07-24T06:28:25;11.70;;;6.85;;
60867;SDS011;46702;48.370;10.794;2023-07-24T06:30:52;13.77;;;6.18;;
60867;SDS011;46702;48.370;10.794;2023-07-24T06:33:19;11.93;;;7.07;;
60867;SDS011;46702;48.370;10.794;2023-07-24T06:35:46;12.57;;;7.20;;
60867;SDS011;46702;48.370;10.794;2023-07-24T06:38:15;10.07;;;6.82;;
60867;SDS011;46702;48.370;10.794;2023-07-24T06:40:41;11.20;;;6.07;;
60867;SDS011;46702;48.370;10.794;2023-07-24T06:43:07;12.90;;;6.30;;
60867;SDS011;46702;48.370;10.794;2023-07-24T06:45:32;11.18;;;6.00;;
60867;SDS011;46702;48.370;10.794;2023-07-24T06:47:58;12.98;;;6.53;;
60867;SDS011;46702;48.370;10.794;2023-07-24T06:50:23;11.40;;;5.60;;
60867;SDS011;46702;48.370;10.794;2023-07-24T06:52:49;11.70;;;5.85;;
60867;SDS011;46702;48.370;10.794;2023-07-24T06:55:16;11.80;;;5.35;;
60867;SDS011;46702;48.370;10.794;2023-07-24T06:57:42;8.00;;;4.80;;
60867;SDS011;46702;48.370;10.794;2023-07-24T07:00:08;12.02;;;5.97;;
60867;SDS011;46702;48.370;10.794;2023-07-24T07:02:36;10.00;;;5.68;;
60867;SDS011;46702;48.370;10.794;2023-07-24T07:05:02;9.45;;;5.60;;
60867;SDS011;46702;48.370;10.794;2023-07-24T07:07:28;8.45;;;5.13;;
60867;SDS011;46702;48.370;10.794;2023-07-24T07:09:54;10.15;;;5.70;;
60867;SDS011;46702;48.370;10.794;2023-07-24T07:12:19;8.65;;;5.25;;
60867;SDS011;46702;48.370;10.794;2023-07-24T07:14:45;9.20;;;4.90;;
60867;SDS011;46702;48.370;10.794;2023-07-24T07:17:11;8.82;;;4.65;;
60867;SDS011;46702;48.370;10.794;2023-07-24T07:19:36;7.88;;;4.72;;
60867;SDS011;46702;48.370;10.794;2023-07-24T07:22:02;7.70;;;4.32;;
60867;SDS011;46702;48.370;10.794;2023-07-24T07:24:28;8.07;;;4.45;;
60867;SDS011;46702;48.370;10.794;2023-07-24T07:26:53;8.15;;;4.95;;
60867;SDS011;46702;48.370;10.794;2023-07-24T07:29:19;7.05;;;4.47;;
60867;SDS011;46702;48.370;10.794;2023-07-24T07:31:45;9.27;;;5.28;;
60867;SDS011;46702;48.370;10.794;2023-07-24T07:34:10;9.30;;;4.57;;
60867;SDS011;46702;48.370;10.794;2023-07-24T07:36:36;7.93;;;4.60;;
60867;SDS011;46702;48.370;10.794;2023-07-24T07:39:02;9.80;;;4.38;;
60867;SDS011;46702;48.370;10.794;2023-07-24T07:41:27;9.77;;;4.85;;
60867;SDS011;46702;48.370;10.794;2023-07-24T07:43:53;8.85;;;4.63;;
60867;SDS011;46702;48.370;10.794;2023-07-24T07:46:19;8.93;;;4.97;;
60867;SDS011;46702;48.370;10.794;2023-07-24T07:48:45;9.80;;;5.47;;
60867;SDS011;46702;48.370;10.794;2023-07-24T07:51:14;7.78;;;4.72;;
60867;SDS011;46702;48.370;10.794;2023-07-24T07:53:40;9.15;;;4.90;;
60867;SDS011;46702;48.370;10.794;2023-07-24T07:56:05;10.18;;;4.38;;
60867;SDS011;46702;48.370;10.794;2023-07-24T07:58:32;8.27;;;4.20;;
60867;SDS011;46702;48.370;10.794;2023-07-24T08:00:57;7.00;;;4.35;;
60867;SDS011;46702;48.370;10.794;2023-07-24T08:03:23;7.20;;;3.97;;
60867;SDS011;46702;48.370;10.794;2023-07-24T08:05:48;7.55;;;3.85;;
60867;SDS011;46702;48.370;10.794;2023-07-24T08:08:14;7.63;;;4.18;;
60867;SDS011;46702;48.370;10.794;2023-07-24T08:10:40;5.93;;;4.00;;
60867;SDS011;46702;48.370;10.794;2023-07-24T08:13:06;8.23;;;4.35;;
60867;SDS011;46702;48.370;10.794;2023-07-24T08:15:35;6.07;;;3.88;;
60867;SDS011;46702;48.370;10.794;2023-07-24T08:18:01;7.68;;;4.20;;
60867;SDS011;46702;48.370;10.794;2023-07-24T08:20:30;5.95;;;3.70;;
60867;SDS011;46702;48.370;10.794;2023-07-24T08:22:57;8.30;;;3.90;;
60867;SDS011;46702;48.370;10.794;2023-07-24T08:25:22;6.55;;;3.72;;
60867;SDS011;46702;48.370;10.794;2023-07-24T08:27:48;4.90;;;3.45;;
60867;SDS011;46702;48.370;10.794;2023-07-24T08:30:14;9.10;;;4.32;;
60867;SDS011;46702;48.370;10.794;2023-07-24T08:32:39;6.15;;;3.58;;
60867;SDS011;46702;48.370;10.794;2023-07-24T08:35:05;6.97;;;4.30;;
60867;SDS011;46702;48.370;10.794;2023-07-24T08:37:31;5.63;;;3.25;;
60867;SDS011;46702;48.370;10.794;2023-07-24T08:39:57;7.55;;;3.88;;
60867;SDS011;46702;48.370;10.794;2023-07-24T08:42:22;6.15;;;3.20;;
60867;SDS011;46702;48.370;10.794;2023-07-24T08:44:48;5.40;;;3.50;;
60867;SDS011;46702;48.370;10.794;2023-07-24T08:47:14;6.18;;;3.55;;
60867;SDS011;46702;48.370;10.794;2023-07-24T08:49:40;6.47;;;3.67;;
60867;SDS011;46702;48.370;10.794;2023-07-24T08:52:08;6.50;;;3.90;;
60867;SDS011;46702;48.370;10.794;2023-07-24T08:54:35;7.30;;;4.05;;
60867;SDS011;46702;48.370;10.794;2023-07-24T08:57:02;5.55;;;3.90;;
60867;SDS011;46702;48.370;10.794;2023-07-24T08:59:29;6.65;;;3.95;;
60867;SDS011;46702;48.370;10.794;2023-07-24T09:01:55;7.38;;;4.15;;
60867;SDS011;46702;48.370;10.794;2023-07-24T09:04:21;6.25;;;3.90;;
60867;SDS011;46702;48.370;10.794;2023-07-24T09:06:47;6.80;;;3.75;;
60867;SDS011;46702;48.370;10.794;2023-07-24T09:09:13;7.53;;;4.00;;
60867;SDS011;46702;48.370;10.794;2023-07-24T09:11:52;6.28;;;4.20;;
60867;SDS011;46702;48.370;10.794;2023-07-24T09:16:47;4.97;;;3.60;;
60867;SDS011;46702;48.370;10.794;2023-07-24T09:19:16;5.88;;;3.83;;
60867;SDS011;46702;48.370;10.794;2023-07-24T09:21:45;7.22;;;3.63;;
60867;SDS011;46702;48.370;10.794;2023-07-24T09:24:14;7.30;;;3.85;;
60867;SDS011;46702;48.370;10.794;2023-07-24T09:26:47;7.47;;;4.30;;
60867;SDS011;46702;48.370;10.794;2023-07-24T09:29:17;8.07;;;4.05;;
60867;SDS011;46702;48.370;10.794;2023-07-24T09:31:43;6.97;;;4.22;;
60867;SDS011;46702;48.370;10.794;2023-07-24T09:34:13;5.97;;;3.58;;
60867;SDS011;46702;48.370;10.794;2023-07-24T09:36:42;6.10;;;3.80;;
60867;SDS011;46702;48.370;10.794;2023-07-24T09:39:09;6.72;;;3.65;;
60867;SDS011;46702;48.370;10.794;2023-07-24T09:41:36;5.75;;;3.78;;
60867;SDS011;46702;48.370;10.794;2023-07-24T09:44:03;6.38;;;3.63;;
60867;SDS011;46702;48.370;10.794;2023-07-24T09:46:29;5.35;;;3.30;;
60867;SDS011;46702;48.370;10.794;2023-07-24T09:48:56;6.05;;;3.40;;
60867;SDS011;46702;48.370;10.794;2023-07-24T09:51:22;4.35;;;3.25;;
60867;SDS011;46702;48.370;10.794;2023-07-24T09:56:40;4.22;;;3.08;;
60867;SDS011;46702;48.370;10.794;2023-07-24T09:59:07;4.60;;;3.60;;
60867;SDS011;46702;48.370;10.794;2023-07-24T10:01:35;5.20;;;3.20;;
60867;SDS011;46702;48.370;10.794;2023-07-24T10:04:02;5.93;;;3.50;;
60867;SDS011;46702;48.370;10.794;2023-07-24T10:06:30;6.13;;;3.58;;
60867;SDS011;46702;48.370;10.794;2023-07-24T10:08:56;4.68;;;2.85;;
60867;SDS011;46702;48.370;10.794;2023-07-24T10:11:23;4.43;;;3.05;;
60867;SDS011;46702;48.370;10.794;2023-07-24T10:13:50;5.03;;;3.17;;
60867;SDS011;46702;48.370;10.794;2023-07-24T10:16:17;7.00;;;3.28;;
60867;SDS011;46702;48.370;10.794;2023-07-24T10:18:43;4.63;;;3.00;;
60867;SDS011;46702;48.370;10.794;2023-07-24T10:21:10;4.38;;;2.90;;
60867;SDS011;46702;48.370;10.794;2023-07-24T10:23:39;5.03;;;2.90;;
60867;SDS011;46702;48.370;10.794;2023-07-24T10:26:11;4.80;;;3.25;;
60867;SDS011;46702;48.370;10.794;2023-07-24T10:28:37;4.55;;;3.13;;
60867;SDS011;46702;48.370;10.794;2023-07-24T10:31:05;4.43;;;3.00;;
60867;SDS011;46702;48.370;10.794;2023-07-24T10:33:34;5.28;;;3.13;;
60867;SDS011;46702;48.370;10.794;2023-07-24T10:36:10;4.25;;;2.90;;
60867;SDS011;46702;48.370;10.794;2023-07-24T10:38:38;6.47;;;3.50;;
60867;SDS011;46702;48.370;10.794;2023-07-24T10:41:06;4.53;;;3.25;;
60867;SDS011;46702;48.370;10.794;2023-07-24T10:43:45;5.07;;;3.53;;
60867;SDS011;46702;48.370;10.794;2023-07-24T10:46:12;6.07;;;3.40;;
60867;SDS011;46702;48.370;10.794;2023-07-24T10:48:49;5.30;;;3.38;;
60867;SDS011;46702;48.370;10.794;2023-07-24T10:51:16;4.83;;;3.07;;
60867;SDS011;46702;48.370;10.794;2023-07-24T10:53:45;4.70;;;3.28;;
60867;SDS011;46702;48.370;10.794;2023-07-24T10:56:13;6.78;;;3.22;;
60867;SDS011;46702;48.370;10.794;2023-07-24T10:58:39;4.93;;;3.70;;
60867;SDS011;46702;48.370;10.794;2023-07-24T11:01:05;6.55;;;3.33;;
60867;SDS011;46702;48.370;10.794;2023-07-24T11:03:32;6.07;;;3.13;;
60867;SDS011;46702;48.370;10.794;2023-07-24T11:06:00;5.47;;;3.40;;
60867;SDS011;46702;48.370;10.794;2023-07-24T11:08:27;5.50;;;3.27;;
60867;SDS011;46702;48.370;10.794;2023-07-24T11:10:54;4.63;;;3.63;;
60867;SDS011;46702;48.370;10.794;2023-07-24T11:13:26;7.38;;;3.40;;
60867;SDS011;46702;48.370;10.794;2023-07-24T11:15:53;4.53;;;3.33;;
60867;SDS011;46702;48.370;10.794;2023-07-24T11:18:20;5.15;;;3.20;;
60867;SDS011;46702;48.370;10.794;2023-07-24T11:23:16;5.20;;;3.20;;
60867;SDS011;46702;48.370;10.794;2023-07-24T11:25:43;4.05;;;2.95;;
60867;SDS011;46702;48.370;10.794;2023-07-24T11:28:10;5.55;;;3.60;;
60867;SDS011;46702;48.370;10.794;2023-07-24T11:30:36;4.88;;;3.60;;
60867;SDS011;46702;48.370;10.794;2023-07-24T11:33:03;4.95;;;2.85;;
60867;SDS011;46702;48.370;10.794;2023-07-24T11:35:30;4.90;;;3.47;;
60867;SDS011;46702;48.370;10.794;2023-07-24T11:37:56;6.32;;;4.05;;
60867;SDS011;46702;48.370;10.794;2023-07-24T11:40:30;5.68;;;3.53;;
60867;SDS011;46702;48.370;10.794;2023-07-24T11:42:57;5.57;;;3.40;;
60867;SDS011;46702;48.370;10.794;2023-07-24T11:45:22;4.85;;;3.15;;
60867;SDS011;46702;48.370;10.794;2023-07-24T11:47:48;6.93;;;3.35;;
60867;SDS011;46702;48.370;10.794;2023-07-24T11:50:15;5.57;;;3.35;;
60867;SDS011;46702;48.370;10.794;2023-07-24T11:52:43;4.97;;;3.20;;
60867;SDS011;46702;48.370;10.794;2023-07-24T11:55:13;5.38;;;3.20;;
60867;SDS011;46702;48.370;10.794;2023-07-24T11:57:43;6.47;;;3.78;;
60867;SDS011;46702;48.370;10.794;2023-07-24T12:00:18;6.30;;;3.83;;
60867;SDS011;46702;48.370;10.794;2023-07-24T12:02:45;5.50;;;3.35;;
60867;SDS011;46702;48.370;10.794;2023-07-24T12:05:11;5.25;;;3.30;;
60867;SDS011;46702;48.370;10.794;2023-07-24T12:07:36;4.82;;;3.60;;
60867;SDS011;46702;48.370;10.794;2023-07-24T12:10:03;8.23;;;3.92;;
60867;SDS011;46702;48.370;10.794;2023-07-24T12:12:37;5.75;;;3.65;;
60867;SDS011;46702;48.370;10.794;2023-07-24T12:15:10;6.70;;;3.72;;
60867;SDS011;46702;48.370;10.794;2023-07-24T12:17:36;7.85;;;3.88;;
60867;SDS011;46702;48.370;10.794;2023-07-24T12:20:06;6.18;;;3.38;;
60867;SDS011;46702;48.370;10.794;2023-07-24T12:22:36;6.03;;;3.45;;
60867;SDS011;46702;48.370;10.794;2023-07-24T12:25:02;5.82;;;3.67;;
60867;SDS011;46702;48.370;10.794;2023-07-24T12:27:29;6.90;;;4.00;;
60867;SDS011;46702;48.370;10.794;2023-07-24T12:29:54;7.68;;;3.95;;
60867;SDS011;46702;48.370;10.794;2023-07-24T12:32:20;6.00;;;3.42;;
60867;SDS011;46702;48.370;10.794;2023-07-24T12:34:52;9.13;;;4.20;;
60867;SDS011;46702;48.370;10.794;2023-07-24T12:37:18;6.95;;;4.00;;
60867;SDS011;46702;48.370;10.794;2023-07-24T12:39:45;7.72;;;3.92;;
60867;SDS011;46702;48.370;10.794;2023-07-24T12:42:11;6.97;;;4.18;;
60867;SDS011;46702;48.370;10.794;2023-07-24T12:44:37;6.18;;;3.97;;
60867;SDS011;46702;48.370;10.794;2023-07-24T12:47:03;7.28;;;4.05;;
60867;SDS011;46702;48.370;10.794;2023-07-24T12:49:29;8.90;;;4.13;;
60867;SDS011;46702;48.370;10.794;2023-07-24T12:51:55;7.22;;;3.97;;
60867;SDS011;46702;48.370;10.794;2023-07-24T12:54:20;6.82;;;4.15;;
60867;SDS011;46702;48.370;10.794;2023-07-24T12:56:47;5.57;;;3.75;;
60867;SDS011;46702;48.370;10.794;2023-07-24T12:59:13;7.85;;;4.10;;
60867;SDS011;46702;48.370;10.794;2023-07-24T13:01:39;6.70;;;4.32;;
60867;SDS011;46702;48.370;10.794;2023-07-24T13:04:05;7.53;;;3.83;;
60867;SDS011;46702;48.370;10.794;2023-07-24T13:06:32;6.10;;;3.97;;
60867;SDS011;46702;48.370;10.794;2023-07-24T13:08:58;6.68;;;3.60;;
60867;SDS011;46702;48.370;10.794;2023-07-24T13:11:23;6.82;;;4.07;;
60867;SDS011;46702;48.370;10.794;2023-07-24T13:13:49;5.65;;;3.65;;
60867;SDS011;46702;48.370;10.794;2023-07-24T13:16:15;5.40;;;3.63;;
60867;SDS011;46702;48.370;10.794;2023-07-24T13:18:42;7.50;;;4.35;;
60867;SDS011;46702;48.370;10.794;2023-07-24T13:21:07;7.07;;;3.65;;
60867;SDS011;46702;48.370;10.794;2023-07-24T13:23:33;6.40;;;3.70;;
60867;SDS011;46702;48.370;10.794;2023-07-24T13:25:59;5.55;;;3.20;;
60867;SDS011;46702;48.370;10.794;2023-07-24T13:28:25;6.28;;;3.47;;
60867;SDS011;46702;48.370;10.794;2023-07-24T13:30:50;5.50;;;3.20;;
60867;SDS011;46702;48.370;10.794;2023-07-24T13:33:16;5.88;;;3.20;;
60867;SDS011;46702;48.370;10.794;2023-07-24T13:35:42;5.35;;;3.42;;
60867;SDS011;46702;48.370;10.794;2023-07-24T13:38:07;4.95;;;3.38;;
60867;SDS011;46702;48.370;10.794;2023-07-24T13:40:34;6.57;;;4.10;;
60867;SDS011;46702;48.370;10.794;2023-07-24T13:43:00;4.40;;;3.00;;
60867;SDS011;46702;48.370;10.794;2023-07-24T13:45:27;5.63;;;3.00;;
60867;SDS011;46702;48.370;10.794;2023-07-24T13:47:52;6.13;;;3.42;;
60867;SDS011;46702;48.370;10.794;2023-07-24T13:50:18;5.05;;;3.17;;
60867;SDS011;46702;48.370;10.794;2023-07-24T13:52:43;5.05;;;3.33;;
60867;SDS011;46702;48.370;10.794;2023-07-24T13:55:09;6.20;;;3.00;;
60867;SDS011;46702;48.370;10.794;2023-07-24T13:57:34;4.45;;;2.80;;
60867;SDS011;46702;48.370;10.794;2023-07-24T14:00:00;4.53;;;3.13;;
60867;SDS011;46702;48.370;10.794;2023-07-24T14:02:26;4.88;;;2.95;;
60867;SDS011;46702;48.370;10.794;2023-07-24T14:04:52;4.32;;;2.70;;
60867;SDS011;46702;48.370;10.794;2023-07-24T14:07:18;4.50;;;2.92;;
60867;SDS011;46702;48.370;10.794;2023-07-24T14:09:44;4.43;;;2.70;;
60867;SDS011;46702;48.370;10.794;2023-07-24T14:12:09;8.48;;;3.42;;
60867;SDS011;46702;48.370;10.794;2023-07-24T14:14:35;4.65;;;3.03;;
60867;SDS011;46702;48.370;10.794;2023-07-24T14:17:00;3.88;;;2.83;;
60867;SDS011;46702;48.370;10.794;2023-07-24T14:19:26;3.97;;;2.80;;
60867;SDS011;46702;48.370;10.794;2023-07-24T14:21:52;4.70;;;2.33;;
60867;SDS011;46702;48.370;10.794;2023-07-24T14:24:17;3.67;;;2.10;;
60867;SDS011;46702;48.370;10.794;2023-07-24T14:26:43;3.50;;;2.20;;
60867;SDS011;46702;48.370;10.794;2023-07-24T14:29:10;4.03;;;2.60;;
60867;SDS011;46702;48.370;10.794;2023-07-24T14:31:36;4.10;;;2.78;;
60867;SDS011;46702;48.370;10.794;2023-07-24T14:34:02;3.78;;;2.25;;